Clean Ocean — V7CY7 — position and weather

sailwx.info

Track history (hours):
 
Tides and Currents Weather Stations Pressure Air Temp Water Temp Dewpoint Dewpoint Depression Visibility Wind Speed Wind Dir Waves Ship Positions

Clean Ocean

Last reported at 2017-Dec-08 15:52 UTC. Time now 2017-Dec-11 04:10 UTC.
Position N 26°12' W 079°24'.

Length 289 m; draft 9.5 m.

Type: Tanker. MMSI: 538005350.

Date/timePositionNaut miles runAvg speedWind from/ knotsBaromVisibWave heightAir tempDewpointWater temp
2017-Dec-08 15:52N 26°12' W 079°24'718.5
2017-Dec-08 15:30N 26°06' W 079°29'918.7
2017-Dec-08 15:01N 25°58' W 079°33'1019.2
2017-Dec-08 14:30N 25°48' W 079°32'1019.2
2017-Dec-08 14:00N 25°39' W 079°32'1019.3
2017-Dec-08 13:31N 25°29' W 079°32'  
2017-Dec-04 08:44N 29°27' W 093°40'4 0.2
2017-Dec-03 14:43N 29°25' W 093°43'0 0.0
2017-Dec-03 14:25N 29°25' W 093°43'0 0.0
2017-Dec-03 13:56N 29°25' W 093°43'0 0.0
2017-Dec-03 12:34N 29°25' W 093°43'0 0.1
2017-Dec-03 12:29N 29°25' W 093°43'0 0.0
2017-Dec-03 11:53N 29°25' W 093°43'0 0.0
2017-Dec-03 10:52N 29°25' W 093°43'0 0.0
2017-Dec-03 10:10N 29°25' W 093°43'0 0.0
2017-Dec-03 09:55N 29°25' W 093°43'0 0.0
2017-Dec-03 09:22N 29°25' W 093°43'0 0.4
2017-Dec-03 08:56N 29°24' W 093°42'0 0.7
2017-Dec-03 08:30N 29°24' W 093°42'2 4.2
2017-Dec-03 08:00N 29°23' W 093°41'0 0.4
2017-Dec-03 07:24N 29°23' W 093°40'0 0.4
2017-Dec-03 07:00N 29°23' W 093°40'0 0.4
2017-Dec-03 06:19N 29°22' W 093°40'0 0.5
2017-Dec-03 05:55N 29°22' W 093°40'2 3.8
2017-Dec-03 05:25N 29°20' W 093°39'5 9.7
2017-Dec-03 04:54N 29°15' W 093°39'10 9.3
2017-Dec-03 03:51N 29°06' W 093°38'1610.9
2017-Dec-03 02:22N 28°53' W 093°27'411.4
2017-Dec-03 02:00N 28°49' W 093°24'711.8
2017-Dec-03 01:26N 28°44' W 093°19'512.2
2017-Dec-03 01:00N 28°40' W 093°15'  
Track history (hours):
 
Tides and Currents Weather Stations Pressure Air Temp Water Temp Dewpoint Dewpoint Depression Visibility Wind Speed Wind Dir Waves Ship Positions

Clean Ocean

Last reported at 2017-Dec-08 15:52 UTC. Time now 2017-Dec-11 04:10 UTC.
Position N 26°12' W 079°24'.

Length 289 m; draft 9.5 m.

Type: Tanker. MMSI: 538005350.

Date/timePositionNaut miles runAvg speedWind from/ knotsBaromVisibWave heightAir tempDewpointWater temp
2017-Dec-08 15:52N 26°12' W 079°24'718.5
2017-Dec-08 15:30N 26°06' W 079°29'918.7
2017-Dec-08 15:01N 25°58' W 079°33'1019.2
2017-Dec-08 14:30N 25°48' W 079°32'1019.2
2017-Dec-08 14:00N 25°39' W 079°32'1019.3
2017-Dec-08 13:31N 25°29' W 079°32'  
2017-Dec-04 08:44N 29°27' W 093°40'4 0.2
2017-Dec-03 14:43N 29°25' W 093°43'0 0.0
2017-Dec-03 14:25N 29°25' W 093°43'0 0.0
2017-Dec-03 13:56N 29°25' W 093°43'0 0.0
2017-Dec-03 12:34N 29°25' W 093°43'0 0.1
2017-Dec-03 12:29N 29°25' W 093°43'0 0.0
2017-Dec-03 11:53N 29°25' W 093°43'0 0.0
2017-Dec-03 10:52N 29°25' W 093°43'0 0.0
2017-Dec-03 10:10N 29°25' W 093°43'0 0.0
2017-Dec-03 09:55N 29°25' W 093°43'0 0.0
2017-Dec-03 09:22N 29°25' W 093°43'0 0.4
2017-Dec-03 08:56N 29°24' W 093°42'0 0.7
2017-Dec-03 08:30N 29°24' W 093°42'2 4.2
2017-Dec-03 08:00N 29°23' W 093°41'0 0.4
2017-Dec-03 07:24N 29°23' W 093°40'0 0.4
2017-Dec-03 07:00N 29°23' W 093°40'0 0.4
2017-Dec-03 06:19N 29°22' W 093°40'0 0.5
2017-Dec-03 05:55N 29°22' W 093°40'2 3.8
2017-Dec-03 05:25N 29°20' W 093°39'5 9.7
2017-Dec-03 04:54N 29°15' W 093°39'10 9.3
2017-Dec-03 03:51N 29°06' W 093°38'1610.9
2017-Dec-03 02:22N 28°53' W 093°27'411.4
2017-Dec-03 02:00N 28°49' W 093°24'711.8
2017-Dec-03 01:26N 28°44' W 093°19'512.2
2017-Dec-03 01:00N 28°40' W 093°15'  

Dump ship's entire track history